sensor_id;sensor_type;location;lat;lon;timestamp;temperature;humidity
18043;DHT22;9146;48.074;11.968;2023-02-07T00:00:22;-6.00;99.90
18043;DHT22;9146;48.074;11.968;2023-02-07T00:02:50;-6.00;99.90
18043;DHT22;9146;48.074;11.968;2023-02-07T00:05:20;-6.00;99.90
18043;DHT22;9146;48.074;11.968;2023-02-07T00:07:46;-6.00;99.90
18043;DHT22;9146;48.074;11.968;2023-02-07T00:10:14;-6.00;99.90
18043;DHT22;9146;48.074;11.968;2023-02-07T00:12:41;-6.00;99.90
18043;DHT22;9146;48.074;11.968;2023-02-07T00:15:09;-5.90;99.90
18043;DHT22;9146;48.074;11.968;2023-02-07T00:17:36;-5.90;99.90
18043;DHT22;9146;48.074;11.968;2023-02-07T00:20:06;-5.90;99.90
18043;DHT22;9146;48.074;11.968;2023-02-07T00:22:33;-5.90;99.90
18043;DHT22;9146;48.074;11.968;2023-02-07T00:25:00;-5.90;99.90
18043;DHT22;9146;48.074;11.968;2023-02-07T00:27:27;-5.90;99.90
18043;DHT22;9146;48.074;11.968;2023-02-07T00:29:54;-5.90;99.90
18043;DHT22;9146;48.074;11.968;2023-02-07T00:32:21;-5.90;99.90
18043;DHT22;9146;48.074;11.968;2023-02-07T00:34:48;-5.90;99.90
18043;DHT22;9146;48.074;11.968;2023-02-07T00:37:17;-6.00;99.90
18043;DHT22;9146;48.074;11.968;2023-02-07T00:39:44;-6.00;99.90
18043;DHT22;9146;48.074;11.968;2023-02-07T00:42:11;-5.90;99.90
18043;DHT22;9146;48.074;11.968;2023-02-07T00:44:38;-6.00;99.90
18043;DHT22;9146;48.074;11.968;2023-02-07T00:47:05;-6.00;99.90
18043;DHT22;9146;48.074;11.968;2023-02-07T00:49:32;-6.00;99.90
18043;DHT22;9146;48.074;11.968;2023-02-07T00:51:58;-6.00;99.90
18043;DHT22;9146;48.074;11.968;2023-02-07T00:54:27;-6.00;99.90
18043;DHT22;9146;48.074;11.968;2023-02-07T00:56:54;-6.00;99.90
18043;DHT22;9146;48.074;11.968;2023-02-07T00:59:21;-6.00;99.90
18043;DHT22;9146;48.074;11.968;2023-02-07T01:01:47;-6.00;99.90
18043;DHT22;9146;48.074;11.968;2023-02-07T01:04:14;-6.00;99.90
18043;DHT22;9146;48.074;11.968;2023-02-07T01:06:41;-6.00;99.90
18043;DHT22;9146;48.074;11.968;2023-02-07T01:09:09;-6.00;99.90
18043;DHT22;9146;48.074;11.968;2023-02-07T01:11:38;-6.00;99.90
18043;DHT22;9146;48.074;11.968;2023-02-07T01:14:05;-6.10;99.90
18043;DHT22;9146;48.074;11.968;2023-02-07T01:16:33;-6.10;99.90
18043;DHT22;9146;48.074;11.968;2023-02-07T01:19:03;-6.10;99.90
18043;DHT22;9146;48.074;11.968;2023-02-07T01:21:30;-6.10;99.90
18043;DHT22;9146;48.074;11.968;2023-02-07T01:23:57;-6.10;99.90
18043;DHT22;9146;48.074;11.968;2023-02-07T01:26:24;-6.10;99.90
18043;DHT22;9146;48.074;11.968;2023-02-07T01:28:53;-6.20;99.90
18043;DHT22;9146;48.074;11.968;2023-02-07T01:31:21;-6.10;99.90
18043;DHT22;9146;48.074;11.968;2023-02-07T01:33:52;-6.20;99.90
18043;DHT22;9146;48.074;11.968;2023-02-07T01:36:19;-6.20;99.90
18043;DHT22;9146;48.074;11.968;2023-02-07T01:38:46;-6.20;99.90
18043;DHT22;9146;48.074;11.968;2023-02-07T01:41:14;-6.20;99.90
18043;DHT22;9146;48.074;11.968;2023-02-07T01:43:57;-6.20;99.90
18043;DHT22;9146;48.074;11.968;2023-02-07T01:46:24;-6.20;99.90
18043;DHT22;9146;48.074;11.968;2023-02-07T01:48:53;-6.20;99.90
18043;DHT22;9146;48.074;11.968;2023-02-07T01:51:22;-6.20;99.90
18043;DHT22;9146;48.074;11.968;2023-02-07T01:53:50;-6.20;99.90
18043;DHT22;9146;48.074;11.968;2023-02-07T01:56:17;-6.30;99.90
18043;DHT22;9146;48.074;11.968;2023-02-07T01:58:45;-6.30;99.90
18043;DHT22;9146;48.074;11.968;2023-02-07T02:01:18;-6.30;99.90
18043;DHT22;9146;48.074;11.968;2023-02-07T02:03:48;-6.30;99.90
18043;DHT22;9146;48.074;11.968;2023-02-07T02:06:16;-6.40;99.90
18043;DHT22;9146;48.074;11.968;2023-02-07T02:08:44;-6.30;99.90
18043;DHT22;9146;48.074;11.968;2023-02-07T02:11:27;-6.30;99.90
18043;DHT22;9146;48.074;11.968;2023-02-07T02:14:07;-6.40;99.90
18043;DHT22;9146;48.074;11.968;2023-02-07T02:16:43;-6.40;99.90
18043;DHT22;9146;48.074;11.968;2023-02-07T02:25:48;-6.40;99.90
18043;DHT22;9146;48.074;11.968;2023-02-07T02:28:42;-6.40;99.90
18043;DHT22;9146;48.074;11.968;2023-02-07T02:31:33;-6.40;99.90
18043;DHT22;9146;48.074;11.968;2023-02-07T02:34:07;-6.40;99.90
18043;DHT22;9146;48.074;11.968;2023-02-07T02:36:42;-6.40;99.90
18043;DHT22;9146;48.074;11.968;2023-02-07T02:39:14;-6.40;99.90
18043;DHT22;9146;48.074;11.968;2023-02-07T02:41:49;-6.40;99.90
18043;DHT22;9146;48.074;11.968;2023-02-07T02:44:29;-6.30;99.90
18043;DHT22;9146;48.074;11.968;2023-02-07T02:46:58;-6.30;99.90
18043;DHT22;9146;48.074;11.968;2023-02-07T02:49:29;-6.30;99.90
18043;DHT22;9146;48.074;11.968;2023-02-07T02:51:58;-6.40;99.90
18043;DHT22;9146;48.074;11.968;2023-02-07T02:54:27;-6.40;99.90
18043;DHT22;9146;48.074;11.968;2023-02-07T02:57:14;-6.40;99.90
18043;DHT22;9146;48.074;11.968;2023-02-07T03:00:03;-6.40;99.90
18043;DHT22;9146;48.074;11.968;2023-02-07T03:02:40;-6.40;99.90
18043;DHT22;9146;48.074;11.968;2023-02-07T03:05:19;-6.40;99.90
18043;DHT22;9146;48.074;11.968;2023-02-07T03:07:56;-6.50;99.90
18043;DHT22;9146;48.074;11.968;2023-02-07T03:10:30;-6.50;99.90
18043;DHT22;9146;48.074;11.968;2023-02-07T03:13:04;-6.50;99.90
18043;DHT22;9146;48.074;11.968;2023-02-07T03:15:46;-6.60;99.90
18043;DHT22;9146;48.074;11.968;2023-02-07T03:18:19;-6.60;99.90
18043;DHT22;9146;48.074;11.968;2023-02-07T03:20:52;-6.70;99.90
18043;DHT22;9146;48.074;11.968;2023-02-07T03:23:20;-6.70;99.90
18043;DHT22;9146;48.074;11.968;2023-02-07T03:25:50;-6.70;99.90
18043;DHT22;9146;48.074;11.968;2023-02-07T03:28:19;-6.70;99.90
18043;DHT22;9146;48.074;11.968;2023-02-07T03:30:48;-6.80;99.90
18043;DHT22;9146;48.074;11.968;2023-02-07T03:33:16;-6.80;99.90
18043;DHT22;9146;48.074;11.968;2023-02-07T03:35:51;-6.90;99.90
18043;DHT22;9146;48.074;11.968;2023-02-07T03:38:19;-6.90;99.90
18043;DHT22;9146;48.074;11.968;2023-02-07T03:40:49;-6.90;99.90
18043;DHT22;9146;48.074;11.968;2023-02-07T03:43:21;-6.90;99.90
18043;DHT22;9146;48.074;11.968;2023-02-07T03:45:49;-6.90;99.90
18043;DHT22;9146;48.074;11.968;2023-02-07T03:48:16;-6.90;99.90
18043;DHT22;9146;48.074;11.968;2023-02-07T03:50:43;-7.00;99.90
18043;DHT22;9146;48.074;11.968;2023-02-07T03:53:13;-7.00;99.90
18043;DHT22;9146;48.074;11.968;2023-02-07T03:55:40;-7.10;99.90
18043;DHT22;9146;48.074;11.968;2023-02-07T03:58:07;-7.10;99.90
18043;DHT22;9146;48.074;11.968;2023-02-07T04:00:34;-7.10;99.90
18043;DHT22;9146;48.074;11.968;2023-02-07T04:03:01;-7.10;99.90
18043;DHT22;9146;48.074;11.968;2023-02-07T04:05:28;-7.10;99.90
18043;DHT22;9146;48.074;11.968;2023-02-07T04:07:55;-7.20;99.90
18043;DHT22;9146;48.074;11.968;2023-02-07T04:10:24;-7.10;99.90
18043;DHT22;9146;48.074;11.968;2023-02-07T04:12:51;-7.20;99.90
18043;DHT22;9146;48.074;11.968;2023-02-07T04:15:18;-7.20;99.90
18043;DHT22;9146;48.074;11.968;2023-02-07T04:17:45;-7.20;99.90
18043;DHT22;9146;48.074;11.968;2023-02-07T04:20:12;-7.30;99.90
18043;DHT22;9146;48.074;11.968;2023-02-07T04:22:39;-7.30;99.90
18043;DHT22;9146;48.074;11.968;2023-02-07T04:25:06;-7.30;99.90
18043;DHT22;9146;48.074;11.968;2023-02-07T04:27:34;-7.30;99.90
18043;DHT22;9146;48.074;11.968;2023-02-07T04:30:01;-7.30;99.90
18043;DHT22;9146;48.074;11.968;2023-02-07T04:32:28;-7.40;99.90
18043;DHT22;9146;48.074;11.968;2023-02-07T04:34:55;-7.40;99.90
18043;DHT22;9146;48.074;11.968;2023-02-07T04:37:22;-7.40;99.90
18043;DHT22;9146;48.074;11.968;2023-02-07T04:39:49;-7.40;99.90
18043;DHT22;9146;48.074;11.968;2023-02-07T04:42:16;-7.40;99.90
18043;DHT22;9146;48.074;11.968;2023-02-07T04:44:44;-7.50;99.90
18043;DHT22;9146;48.074;11.968;2023-02-07T04:47:11;-7.50;99.90
18043;DHT22;9146;48.074;11.968;2023-02-07T04:49:38;-7.50;99.90
18043;DHT22;9146;48.074;11.968;2023-02-07T04:52:07;-7.60;99.90
18043;DHT22;9146;48.074;11.968;2023-02-07T04:54:36;-7.60;99.90
18043;DHT22;9146;48.074;11.968;2023-02-07T04:57:04;-7.60;99.90
18043;DHT22;9146;48.074;11.968;2023-02-07T04:59:31;-7.70;99.90
18043;DHT22;9146;48.074;11.968;2023-02-07T05:01:59;-7.70;99.90
18043;DHT22;9146;48.074;11.968;2023-02-07T05:04:26;-7.70;99.90
18043;DHT22;9146;48.074;11.968;2023-02-07T05:06:53;-7.80;99.90
18043;DHT22;9146;48.074;11.968;2023-02-07T05:09:20;-7.80;99.90
18043;DHT22;9146;48.074;11.968;2023-02-07T05:11:47;-7.80;99.90
18043;DHT22;9146;48.074;11.968;2023-02-07T05:14:13;-7.90;99.90
18043;DHT22;9146;48.074;11.968;2023-02-07T05:16:40;-7.90;99.90
18043;DHT22;9146;48.074;11.968;2023-02-07T05:19:09;-7.90;99.90
18043;DHT22;9146;48.074;11.968;2023-02-07T05:21:35;-7.90;99.90
18043;DHT22;9146;48.074;11.968;2023-02-07T05:24:03;-8.00;99.90
18043;DHT22;9146;48.074;11.968;2023-02-07T05:26:29;-8.00;99.90
18043;DHT22;9146;48.074;11.968;2023-02-07T05:28:56;-8.00;99.90
18043;DHT22;9146;48.074;11.968;2023-02-07T05:31:23;-8.00;99.90
18043;DHT22;9146;48.074;11.968;2023-02-07T05:34:12;-8.00;99.90
18043;DHT22;9146;48.074;11.968;2023-02-07T05:36:38;-8.00;99.90
18043;DHT22;9146;48.074;11.968;2023-02-07T05:39:05;-8.00;99.90
18043;DHT22;9146;48.074;11.968;2023-02-07T05:41:32;-8.00;99.90
18043;DHT22;9146;48.074;11.968;2023-02-07T05:43:59;-8.00;99.90
18043;DHT22;9146;48.074;11.968;2023-02-07T05:46:26;-8.00;99.90
18043;DHT22;9146;48.074;11.968;2023-02-07T05:48:53;-8.00;99.90
18043;DHT22;9146;48.074;11.968;2023-02-07T05:51:21;-8.00;99.90
18043;DHT22;9146;48.074;11.968;2023-02-07T05:53:48;-8.00;99.90
18043;DHT22;9146;48.074;11.968;2023-02-07T05:56:15;-8.00;99.90
18043;DHT22;9146;48.074;11.968;2023-02-07T05:58:42;-8.00;99.90
18043;DHT22;9146;48.074;11.968;2023-02-07T06:01:09;-8.00;99.90
18043;DHT22;9146;48.074;11.968;2023-02-07T06:03:35;-8.00;99.90
18043;DHT22;9146;48.074;11.968;2023-02-07T06:06:03;-7.90;99.90
18043;DHT22;9146;48.074;11.968;2023-02-07T06:08:31;-7.90;99.90
18043;DHT22;9146;48.074;11.968;2023-02-07T06:10:58;-7.90;99.90
18043;DHT22;9146;48.074;11.968;2023-02-07T06:13:25;-7.90;99.90
18043;DHT22;9146;48.074;11.968;2023-02-07T06:15:52;-7.90;99.90
18043;DHT22;9146;48.074;11.968;2023-02-07T06:18:19;-7.80;99.90
18043;DHT22;9146;48.074;11.968;2023-02-07T06:20:49;-7.80;99.90
18043;DHT22;9146;48.074;11.968;2023-02-07T06:23:16;-7.80;99.90
18043;DHT22;9146;48.074;11.968;2023-02-07T06:25:46;-7.80;99.90
18043;DHT22;9146;48.074;11.968;2023-02-07T06:28:13;-7.80;99.90
18043;DHT22;9146;48.074;11.968;2023-02-07T06:30:40;-7.80;99.90
18043;DHT22;9146;48.074;11.968;2023-02-07T06:33:08;-7.70;99.90
18043;DHT22;9146;48.074;11.968;2023-02-07T06:35:35;-7.70;99.90
18043;DHT22;9146;48.074;11.968;2023-02-07T06:38:02;-7.70;99.90
18043;DHT22;9146;48.074;11.968;2023-02-07T06:40:29;-7.60;99.90
18043;DHT22;9146;48.074;11.968;2023-02-07T06:42:57;-7.60;99.90
18043;DHT22;9146;48.074;11.968;2023-02-07T06:45:24;-7.60;99.90
18043;DHT22;9146;48.074;11.968;2023-02-07T06:47:51;-7.60;99.90
18043;DHT22;9146;48.074;11.968;2023-02-07T06:50:18;-7.60;99.90
18043;DHT22;9146;48.074;11.968;2023-02-07T06:52:45;-7.50;99.90
18043;DHT22;9146;48.074;11.968;2023-02-07T06:55:12;-7.50;99.90
18043;DHT22;9146;48.074;11.968;2023-02-07T06:57:39;-7.50;99.90
18043;DHT22;9146;48.074;11.968;2023-02-07T07:00:08;-7.40;99.90
18043;DHT22;9146;48.074;11.968;2023-02-07T07:02:35;-7.40;99.90
18043;DHT22;9146;48.074;11.968;2023-02-07T07:05:02;-7.30;99.90
18043;DHT22;9146;48.074;11.968;2023-02-07T07:07:29;-7.20;99.90
18043;DHT22;9146;48.074;11.968;2023-02-07T07:09:56;-7.20;99.90
18043;DHT22;9146;48.074;11.968;2023-02-07T07:12:23;-7.10;99.90
18043;DHT22;9146;48.074;11.968;2023-02-07T07:14:50;-7.10;99.90
18043;DHT22;9146;48.074;11.968;2023-02-07T07:17:19;-7.10;99.90
18043;DHT22;9146;48.074;11.968;2023-02-07T07:19:45;-7.00;99.90
18043;DHT22;9146;48.074;11.968;2023-02-07T07:22:12;-7.00;99.90
18043;DHT22;9146;48.074;11.968;2023-02-07T07:24:39;-7.00;99.90
18043;DHT22;9146;48.074;11.968;2023-02-07T07:27:06;-6.90;99.90
18043;DHT22;9146;48.074;11.968;2023-02-07T07:29:33;-6.90;99.90
18043;DHT22;9146;48.074;11.968;2023-02-07T07:32:00;-6.80;99.90
18043;DHT22;9146;48.074;11.968;2023-02-07T07:34:28;-6.80;99.90
18043;DHT22;9146;48.074;11.968;2023-02-07T07:36:55;-6.80;99.90
18043;DHT22;9146;48.074;11.968;2023-02-07T07:39:23;-6.80;99.90
18043;DHT22;9146;48.074;11.968;2023-02-07T07:41:50;-6.70;99.90
18043;DHT22;9146;48.074;11.968;2023-02-07T07:44:17;-6.70;99.90
18043;DHT22;9146;48.074;11.968;2023-02-07T07:46:43;-6.60;99.90
18043;DHT22;9146;48.074;11.968;2023-02-07T07:49:11;-6.60;99.90
18043;DHT22;9146;48.074;11.968;2023-02-07T07:51:39;-6.50;99.90
18043;DHT22;9146;48.074;11.968;2023-02-07T07:54:06;-6.50;99.90
18043;DHT22;9146;48.074;11.968;2023-02-07T07:56:33;-6.50;99.90
18043;DHT22;9146;48.074;11.968;2023-02-07T07:59:00;-6.40;99.90
18043;DHT22;9146;48.074;11.968;2023-02-07T08:01:27;-6.40;99.90
18043;DHT22;9146;48.074;11.968;2023-02-07T08:03:54;-6.40;99.90
18043;DHT22;9146;48.074;11.968;2023-02-07T08:06:21;-6.40;99.90
18043;DHT22;9146;48.074;11.968;2023-02-07T08:08:50;-6.30;99.90
18043;DHT22;9146;48.074;11.968;2023-02-07T08:11:16;-6.30;99.90
18043;DHT22;9146;48.074;11.968;2023-02-07T08:13:43;-6.20;99.90
18043;DHT22;9146;48.074;11.968;2023-02-07T08:16:10;-6.20;99.90
18043;DHT22;9146;48.074;11.968;2023-02-07T08:18:38;-6.10;99.90
18043;DHT22;9146;48.074;11.968;2023-02-07T08:21:05;-6.00;99.90
18043;DHT22;9146;48.074;11.968;2023-02-07T08:23:32;-6.00;99.90
18043;DHT22;9146;48.074;11.968;2023-02-07T08:26:01;-5.90;99.90
18043;DHT22;9146;48.074;11.968;2023-02-07T08:28:28;-5.90;99.90
18043;DHT22;9146;48.074;11.968;2023-02-07T08:30:58;-5.80;99.90
18043;DHT22;9146;48.074;11.968;2023-02-07T08:33:25;-5.80;99.90
18043;DHT22;9146;48.074;11.968;2023-02-07T08:35:52;-5.70;99.90
18043;DHT22;9146;48.074;11.968;2023-02-07T08:38:19;-5.70;99.90
18043;DHT22;9146;48.074;11.968;2023-02-07T08:40:46;-5.60;99.90
18043;DHT22;9146;48.074;11.968;2023-02-07T08:43:14;-5.60;99.90
18043;DHT22;9146;48.074;11.968;2023-02-07T08:45:45;-5.50;99.90
18043;DHT22;9146;48.074;11.968;2023-02-07T08:48:12;-5.50;99.90
18043;DHT22;9146;48.074;11.968;2023-02-07T08:50:39;-5.40;99.90
18043;DHT22;9146;48.074;11.968;2023-02-07T08:53:07;-5.30;99.90
18043;DHT22;9146;48.074;11.968;2023-02-07T08:55:34;-5.30;99.90
18043;DHT22;9146;48.074;11.968;2023-02-07T08:58:01;-5.20;99.90
18043;DHT22;9146;48.074;11.968;2023-02-07T09:00:30;-5.30;99.90
18043;DHT22;9146;48.074;11.968;2023-02-07T09:02:56;-5.00;99.90
18043;DHT22;9146;48.074;11.968;2023-02-07T09:05:23;-5.00;99.90
18043;DHT22;9146;48.074;11.968;2023-02-07T09:07:50;-4.90;99.90
18043;DHT22;9146;48.074;11.968;2023-02-07T09:10:17;-4.80;99.90
18043;DHT22;9146;48.074;11.968;2023-02-07T09:12:45;-4.70;99.90
18043;DHT22;9146;48.074;11.968;2023-02-07T09:15:12;-4.70;99.90
18043;DHT22;9146;48.074;11.968;2023-02-07T09:17:40;-4.60;99.90
18043;DHT22;9146;48.074;11.968;2023-02-07T09:20:09;-4.50;99.90
18043;DHT22;9146;48.074;11.968;2023-02-07T09:22:36;-4.40;99.90
18043;DHT22;9146;48.074;11.968;2023-02-07T09:25:23;-4.30;99.90
18043;DHT22;9146;48.074;11.968;2023-02-07T09:27:50;-4.20;99.90
18043;DHT22;9146;48.074;11.968;2023-02-07T09:30:17;-4.10;99.90
18043;DHT22;9146;48.074;11.968;2023-02-07T09:32:45;-4.10;99.90
18043;DHT22;9146;48.074;11.968;2023-02-07T09:35:12;-4.00;99.90
18043;DHT22;9146;48.074;11.968;2023-02-07T09:37:39;-4.00;99.90
18043;DHT22;9146;48.074;11.968;2023-02-07T09:40:06;-3.90;99.90
18043;DHT22;9146;48.074;11.968;2023-02-07T09:42:39;-3.80;99.90
18043;DHT22;9146;48.074;11.968;2023-02-07T09:45:09;-3.80;99.90
18043;DHT22;9146;48.074;11.968;2023-02-07T09:47:40;-3.80;99.90
18043;DHT22;9146;48.074;11.968;2023-02-07T09:50:13;-3.70;99.90
18043;DHT22;9146;48.074;11.968;2023-02-07T09:52:45;-3.70;99.90
18043;DHT22;9146;48.074;11.968;2023-02-07T09:55:18;-3.70;99.90
18043;DHT22;9146;48.074;11.968;2023-02-07T09:57:49;-3.60;99.90
18043;DHT22;9146;48.074;11.968;2023-02-07T10:00:22;-3.60;99.90
18043;DHT22;9146;48.074;11.968;2023-02-07T10:02:53;-3.40;99.90
18043;DHT22;9146;48.074;11.968;2023-02-07T10:05:27;-3.40;99.90
18043;DHT22;9146;48.074;11.968;2023-02-07T10:07:56;-3.40;99.90
18043;DHT22;9146;48.074;11.968;2023-02-07T10:10:30;-3.40;99.90
18043;DHT22;9146;48.074;11.968;2023-02-07T10:13:20;-3.30;99.90
18043;DHT22;9146;48.074;11.968;2023-02-07T10:16:01;-3.30;99.90
18043;DHT22;9146;48.074;11.968;2023-02-07T10:18:41;-3.20;99.90
18043;DHT22;9146;48.074;11.968;2023-02-07T10:21:17;-3.20;99.90
18043;DHT22;9146;48.074;11.968;2023-02-07T10:26:59;-3.10;99.90
18043;DHT22;9146;48.074;11.968;2023-02-07T10:29:45;-3.10;99.90
18043;DHT22;9146;48.074;11.968;2023-02-07T10:32:18;-3.00;99.90
18043;DHT22;9146;48.074;11.968;2023-02-07T10:34:46;-3.00;99.90
18043;DHT22;9146;48.074;11.968;2023-02-07T10:37:18;-3.00;99.90
18043;DHT22;9146;48.074;11.968;2023-02-07T10:39:55;-3.00;99.90
18043;DHT22;9146;48.074;11.968;2023-02-07T10:42:22;-3.00;99.90
18043;DHT22;9146;48.074;11.968;2023-02-07T10:44:50;-2.90;99.90
18043;DHT22;9146;48.074;11.968;2023-02-07T10:47:19;-2.90;99.90
18043;DHT22;9146;48.074;11.968;2023-02-07T10:49:48;-2.90;99.90
18043;DHT22;9146;48.074;11.968;2023-02-07T10:52:26;-2.80;99.90
18043;DHT22;9146;48.074;11.968;2023-02-07T10:54:56;-2.70;99.90
18043;DHT22;9146;48.074;11.968;2023-02-07T10:57:23;-2.70;99.90
18043;DHT22;9146;48.074;11.968;2023-02-07T10:59:57;-2.60;99.90
18043;DHT22;9146;48.074;11.968;2023-02-07T11:02:49;-2.60;99.90
18043;DHT22;9146;48.074;11.968;2023-02-07T11:05:40;-2.50;99.90
18043;DHT22;9146;48.074;11.968;2023-02-07T11:08:20;-2.50;99.90
18043;DHT22;9146;48.074;11.968;2023-02-07T11:10:50;-2.50;99.90
18043;DHT22;9146;48.074;11.968;2023-02-07T11:13:19;-2.40;99.90
18043;DHT22;9146;48.074;11.968;2023-02-07T11:15:49;-2.40;99.90
18043;DHT22;9146;48.074;11.968;2023-02-07T11:18:27;-2.40;99.90
18043;DHT22;9146;48.074;11.968;2023-02-07T11:20:55;-2.40;99.90
18043;DHT22;9146;48.074;11.968;2023-02-07T11:23:24;-2.40;99.90
18043;DHT22;9146;48.074;11.968;2023-02-07T11:25:54;-2.40;99.90
18043;DHT22;9146;48.074;11.968;2023-02-07T11:28:24;-2.30;99.90
18043;DHT22;9146;48.074;11.968;2023-02-07T11:30:53;-2.30;99.90
18043;DHT22;9146;48.074;11.968;2023-02-07T11:33:25;-2.30;99.90
18043;DHT22;9146;48.074;11.968;2023-02-07T11:36:04;-2.30;99.90
18043;DHT22;9146;48.074;11.968;2023-02-07T11:38:38;-2.20;99.90
18043;DHT22;9146;48.074;11.968;2023-02-07T11:41:05;-2.20;99.90
18043;DHT22;9146;48.074;11.968;2023-02-07T11:43:33;-2.20;99.90
18043;DHT22;9146;48.074;11.968;2023-02-07T11:46:04;-2.10;99.90
18043;DHT22;9146;48.074;11.968;2023-02-07T11:48:36;-2.10;99.90
18043;DHT22;9146;48.074;11.968;2023-02-07T11:51:07;-2.10;99.90
18043;DHT22;9146;48.074;11.968;2023-02-07T11:53:39;-2.00;99.90
18043;DHT22;9146;48.074;11.968;2023-02-07T11:56:20;-2.00;99.90
18043;DHT22;9146;48.074;11.968;2023-02-07T11:58:48;-1.90;99.90
18043;DHT22;9146;48.074;11.968;2023-02-07T12:01:20;-1.90;99.90
18043;DHT22;9146;48.074;11.968;2023-02-07T12:03:51;-1.80;99.90
18043;DHT22;9146;48.074;11.968;2023-02-07T12:06:25;-1.80;99.90
18043;DHT22;9146;48.074;11.968;2023-02-07T12:08:57;-1.70;99.90
18043;DHT22;9146;48.074;11.968;2023-02-07T12:11:29;-1.70;99.90
18043;DHT22;9146;48.074;11.968;2023-02-07T12:14:04;-1.70;99.90
18043;DHT22;9146;48.074;11.968;2023-02-07T12:16:36;-1.60;99.90
18043;DHT22;9146;48.074;11.968;2023-02-07T12:19:08;-1.60;99.90
18043;DHT22;9146;48.074;11.968;2023-02-07T12:21:41;-1.60;99.90
18043;DHT22;9146;48.074;11.968;2023-02-07T12:24:15;-1.40;99.90
18043;DHT22;9146;48.074;11.968;2023-02-07T12:26:50;-1.40;99.90
18043;DHT22;9146;48.074;11.968;2023-02-07T12:29:24;-1.40;99.90
18043;DHT22;9146;48.074;11.968;2023-02-07T12:32:01;-1.30;99.90
18043;DHT22;9146;48.074;11.968;2023-02-07T12:34:35;-1.30;99.90
18043;DHT22;9146;48.074;11.968;2023-02-07T12:37:10;-1.20;99.90
18043;DHT22;9146;48.074;11.968;2023-02-07T12:39:45;-1.20;99.90
18043;DHT22;9146;48.074;11.968;2023-02-07T12:42:26;-1.10;99.90
18043;DHT22;9146;48.074;11.968;2023-02-07T12:44:57;-1.10;99.90
18043;DHT22;9146;48.074;11.968;2023-02-07T12:47:40;-1.10;99.90
18043;DHT22;9146;48.074;11.968;2023-02-07T12:50:22;-1.10;99.90
18043;DHT22;9146;48.074;11.968;2023-02-07T12:53:06;-1.10;99.90
18043;DHT22;9146;48.074;11.968;2023-02-07T12:55:43;-0.90;99.90
18043;DHT22;9146;48.074;11.968;2023-02-07T12:58:23;-1.00;99.90
18043;DHT22;9146;48.074;11.968;2023-02-07T13:00:58;-1.00;99.90
18043;DHT22;9146;48.074;11.968;2023-02-07T13:03:37;-1.00;99.90
18043;DHT22;9146;48.074;11.968;2023-02-07T13:06:13;-1.00;99.90
18043;DHT22;9146;48.074;11.968;2023-02-07T13:08:48;-1.00;99.90
18043;DHT22;9146;48.074;11.968;2023-02-07T13:11:28;-1.00;99.90
18043;DHT22;9146;48.074;11.968;2023-02-07T13:14:07;-0.90;99.90
18043;DHT22;9146;48.074;11.968;2023-02-07T13:16:40;-0.90;99.90
18043;DHT22;9146;48.074;11.968;2023-02-07T13:19:15;-0.90;99.90
18043;DHT22;9146;48.074;11.968;2023-02-07T13:21:49;-0.90;99.90
18043;DHT22;9146;48.074;11.968;2023-02-07T13:24:20;-0.90;99.90
18043;DHT22;9146;48.074;11.968;2023-02-07T13:26:54;-0.90;99.90
18043;DHT22;9146;48.074;11.968;2023-02-07T13:29:24;-0.90;99.90
18043;DHT22;9146;48.074;11.968;2023-02-07T13:31:55;-0.90;99.90
18043;DHT22;9146;48.074;11.968;2023-02-07T13:34:25;-0.90;99.90
18043;DHT22;9146;48.074;11.968;2023-02-07T13:36:53;-0.90;99.90
18043;DHT22;9146;48.074;11.968;2023-02-07T13:39:30;-0.80;99.90
18043;DHT22;9146;48.074;11.968;2023-02-07T13:42:14;-0.90;99.90
18043;DHT22;9146;48.074;11.968;2023-02-07T13:44:50;-0.80;99.90
18043;DHT22;9146;48.074;11.968;2023-02-07T13:47:38;-0.80;99.90
18043;DHT22;9146;48.074;11.968;2023-02-07T13:50:18;-0.80;99.90
18043;DHT22;9146;48.074;11.968;2023-02-07T13:52:54;-0.80;99.90
18043;DHT22;9146;48.074;11.968;2023-02-07T13:55:29;-0.80;99.90
18043;DHT22;9146;48.074;11.968;2023-02-07T13:57:59;-0.80;99.90
18043;DHT22;9146;48.074;11.968;2023-02-07T14:01:14;-0.80;99.90
18043;DHT22;9146;48.074;11.968;2023-02-07T14:03:59;-0.80;99.90
18043;DHT22;9146;48.074;11.968;2023-02-07T14:06:28;-0.80;99.90
18043;DHT22;9146;48.074;11.968;2023-02-07T14:09:00;-0.80;99.90
18043;DHT22;9146;48.074;11.968;2023-02-07T14:11:33;-0.80;99.90
18043;DHT22;9146;48.074;11.968;2023-02-07T14:14:05;-0.70;99.90
18043;DHT22;9146;48.074;11.968;2023-02-07T14:16:48;-0.70;99.90
18043;DHT22;9146;48.074;11.968;2023-02-07T14:19:51;-0.70;99.90
18043;DHT22;9146;48.074;11.968;2023-02-07T14:22:28;-0.70;99.90
18043;DHT22;9146;48.074;11.968;2023-02-07T14:25:18;-0.70;99.90
18043;DHT22;9146;48.074;11.968;2023-02-07T14:28:06;-0.70;99.90
18043;DHT22;9146;48.074;11.968;2023-02-07T14:30:37;-0.70;99.90
18043;DHT22;9146;48.074;11.968;2023-02-07T14:33:21;-0.70;99.90
18043;DHT22;9146;48.074;11.968;2023-02-07T14:36:19;-0.70;99.90
18043;DHT22;9146;48.074;11.968;2023-02-07T14:39:02;-0.70;99.90
18043;DHT22;9146;48.074;11.968;2023-02-07T14:41:31;-0.70;99.90
18043;DHT22;9146;48.074;11.968;2023-02-07T14:44:00;-0.70;99.90
18043;DHT22;9146;48.074;11.968;2023-02-07T14:46:30;-0.70;99.90
18043;DHT22;9146;48.074;11.968;2023-02-07T14:49:01;-0.80;99.90
18043;DHT22;9146;48.074;11.968;2023-02-07T14:51:35;-0.80;99.90
18043;DHT22;9146;48.074;11.968;2023-02-07T14:54:07;-0.80;99.90
18043;DHT22;9146;48.074;11.968;2023-02-07T14:56:43;-0.80;99.90
18043;DHT22;9146;48.074;11.968;2023-02-07T14:59:16;-0.80;99.90
18043;DHT22;9146;48.074;11.968;2023-02-07T15:01:45;-0.80;99.90
18043;DHT22;9146;48.074;11.968;2023-02-07T15:04:12;-0.90;99.90
18043;DHT22;9146;48.074;11.968;2023-02-07T15:06:43;-0.90;99.90
18043;DHT22;9146;48.074;11.968;2023-02-07T15:09:18;-0.90;99.90
18043;DHT22;9146;48.074;11.968;2023-02-07T15:11:46;-1.00;99.90
18043;DHT22;9146;48.074;11.968;2023-02-07T15:14:26;-1.00;99.90
18043;DHT22;9146;48.074;11.968;2023-02-07T15:16:55;-1.00;99.90
18043;DHT22;9146;48.074;11.968;2023-02-07T15:19:29;-1.10;99.90
18043;DHT22;9146;48.074;11.968;2023-02-07T15:21:57;-1.10;99.90
18043;DHT22;9146;48.074;11.968;2023-02-07T15:24:27;-1.10;99.90
18043;DHT22;9146;48.074;11.968;2023-02-07T15:26:57;-1.20;99.90
18043;DHT22;9146;48.074;11.968;2023-02-07T15:29:26;-1.20;99.90
18043;DHT22;9146;48.074;11.968;2023-02-07T15:31:55;-1.20;99.90
18043;DHT22;9146;48.074;11.968;2023-02-07T15:34:24;-1.30;99.90
18043;DHT22;9146;48.074;11.968;2023-02-07T15:36:57;-1.30;99.90
18043;DHT22;9146;48.074;11.968;2023-02-07T15:39:25;-1.40;99.90
18043;DHT22;9146;48.074;11.968;2023-02-07T15:41:54;-1.40;99.90
18043;DHT22;9146;48.074;11.968;2023-02-07T15:44:23;-1.40;99.90
18043;DHT22;9146;48.074;11.968;2023-02-07T15:46:53;-1.50;99.90
18043;DHT22;9146;48.074;11.968;2023-02-07T15:49:30;-1.60;99.90
18043;DHT22;9146;48.074;11.968;2023-02-07T15:52:01;-1.60;99.90
18043;DHT22;9146;48.074;11.968;2023-02-07T15:54:37;-1.70;99.90
18043;DHT22;9146;48.074;11.968;2023-02-07T15:57:09;-1.70;99.90
18043;DHT22;9146;48.074;11.968;2023-02-07T15:59:40;-1.80;99.90
18043;DHT22;9146;48.074;11.968;2023-02-07T16:02:22;-1.90;99.90